createdAt,value
2018-01-29T00:01:23.754Z,17.27
2018-01-29T00:03:51.289Z,19.90
2018-01-29T00:06:18.912Z,21.83
2018-01-29T00:08:46.447Z,23.13
2018-01-29T00:11:14.065Z,29.73
2018-01-29T00:13:41.601Z,30.70
2018-01-29T00:16:09.120Z,36.07
2018-01-29T00:18:36.802Z,39.73
2018-01-29T00:21:04.341Z,38.13
2018-01-29T00:23:31.850Z,37.00
2018-01-29T00:25:59.369Z,39.30
2018-01-29T00:28:26.896Z,36.87
2018-01-29T00:30:54.482Z,32.47
2018-01-29T00:33:22.052Z,27.57
2018-01-29T00:35:49.752Z,35.57
2018-01-29T00:38:17.286Z,34.50
2018-01-29T00:40:44.812Z,29.53
2018-01-29T00:43:12.460Z,33.70
2018-01-29T00:45:40.023Z,34.00
2018-01-29T00:48:08.529Z,31.57
2018-01-29T00:50:36.038Z,30.23
2018-01-29T00:53:03.571Z,27.13
2018-01-29T00:55:31.077Z,25.93
2018-01-29T00:57:58.601Z,25.73
2018-01-29T01:00:26.623Z,26.70
2018-01-29T01:02:54.124Z,27.57
2018-01-29T01:05:21.653Z,27.67
2018-01-29T01:07:49.176Z,25.23
2018-01-29T01:10:16.701Z,23.00
2018-01-29T01:12:44.340Z,22.63
2018-01-29T01:15:11.870Z,18.67
2018-01-29T01:17:39.364Z,18.43
2018-01-29T01:20:06.869Z,14.07
2018-01-29T01:22:34.382Z,13.67
2018-01-29T01:25:02.052Z,15.07
2018-01-29T01:27:29.597Z,15.10
2018-01-29T01:29:57.104Z,12.23
2018-01-29T01:32:24.615Z,13.80
2018-01-29T01:34:52.122Z,15.13
2018-01-29T01:37:19.796Z,13.83
2018-01-29T01:42:29.340Z,14.30
2018-01-29T01:44:56.870Z,14.05
2018-01-29T01:47:24.416Z,20.60
2018-01-29T01:49:51.957Z,19.63
2018-01-29T01:52:19.470Z,18.73
2018-01-29T01:54:47.115Z,19.07
2018-01-29T01:57:14.642Z,18.77
2018-01-29T01:59:42.159Z,19.33
2018-01-29T02:02:09.693Z,23.07
2018-01-29T02:04:37.219Z,21.93
2018-01-29T02:07:04.869Z,21.93
2018-01-29T02:09:32.402Z,20.77
2018-01-29T02:11:59.937Z,22.87
2018-01-29T02:14:28.249Z,25.30
2018-01-29T02:16:55.744Z,27.57
2018-01-29T02:19:23.381Z,27.70
2018-01-29T02:21:50.912Z,27.33
2018-01-29T02:24:18.424Z,26.07
2018-01-29T02:26:45.965Z,27.57
2018-01-29T02:29:13.528Z,26.87
2018-01-29T02:31:41.046Z,26.58
2018-01-29T02:34:08.570Z,24.58
2018-01-29T02:36:36.261Z,22.90
2018-01-29T02:39:03.816Z,23.03
2018-01-29T02:41:31.332Z,20.33
2018-01-29T02:43:58.894Z,23.77
2018-01-29T02:46:26.440Z,22.10
2018-01-29T02:48:54.138Z,18.92
2018-01-29T02:51:21.671Z,22.52
2018-01-29T02:53:49.255Z,22.52
2018-01-29T02:56:16.810Z,20.80
2018-01-29T02:58:44.325Z,23.27
2018-01-29T03:01:11.844Z,20.50
2018-01-29T03:03:39.378Z,18.77
2018-01-29T03:06:07.048Z,22.27
2018-01-29T03:08:34.560Z,18.47
2018-01-29T03:11:02.095Z,19.60
2018-01-29T03:13:29.618Z,18.42
2018-01-29T03:15:57.151Z,19.83
2018-01-29T03:18:24.802Z,18.80
2018-01-29T03:20:52.308Z,22.03
2018-01-29T03:23:19.836Z,21.20
2018-01-29T03:25:47.349Z,21.42
2018-01-29T03:28:14.887Z,20.85
2018-01-29T03:30:42.405Z,23.15
2018-01-29T03:33:09.924Z,19.07
2018-01-29T03:35:37.561Z,18.77
2018-01-29T03:38:05.071Z,17.75
2018-01-29T03:40:32.592Z,19.33
2018-01-29T03:43:00.098Z,19.67
2018-01-29T03:45:27.604Z,19.73
2018-01-29T03:47:55.261Z,18.60
2018-01-29T03:50:22.781Z,17.40
2018-01-29T03:52:50.314Z,18.73
2018-01-29T03:55:17.836Z,16.07
2018-01-29T03:57:45.348Z,18.45
2018-01-29T04:00:13.029Z,16.97
2018-01-29T04:02:40.607Z,19.73
2018-01-29T04:05:08.097Z,18.27
2018-01-29T04:07:35.624Z,19.63
2018-01-29T04:10:03.133Z,19.10
2018-01-29T04:12:30.791Z,19.50
2018-01-29T04:14:58.301Z,19.60
2018-01-29T04:17:25.818Z,20.27
2018-01-29T04:19:53.413Z,17.35
2018-01-29T04:22:20.950Z,19.62
2018-01-29T04:24:48.597Z,18.57
2018-01-29T04:27:16.116Z,20.17
2018-01-29T04:29:43.626Z,19.30
2018-01-29T04:32:11.137Z,19.77
2018-01-29T04:34:38.645Z,17.50
2018-01-29T04:37:06.277Z,19.10
2018-01-29T04:39:33.791Z,18.60
2018-01-29T04:42:21.061Z,16.85
2018-01-29T04:44:48.609Z,17.53
2018-01-29T04:47:16.129Z,17.92
2018-01-29T04:49:43.695Z,19.77
2018-01-29T04:52:11.221Z,18.63
2018-01-29T04:54:38.876Z,16.10
2018-01-29T04:57:06.417Z,17.15
2018-01-29T04:59:33.937Z,17.35
2018-01-29T05:02:01.496Z,18.70
2018-01-29T05:04:29.018Z,16.52
2018-01-29T05:06:56.660Z,18.42
2018-01-29T05:09:24.216Z,17.50
2018-01-29T05:11:51.732Z,16.27
2018-01-29T05:14:19.260Z,15.10
2018-01-29T05:16:46.776Z,15.87
2018-01-29T05:19:14.429Z,15.75
2018-01-29T05:21:41.940Z,17.75
2018-01-29T05:24:09.446Z,16.35
2018-01-29T05:26:36.968Z,14.65
2018-01-29T05:29:04.514Z,15.60
2018-01-29T05:31:36.964Z,14.43
2018-01-29T05:34:04.481Z,17.17
2018-01-29T19:49:00.828Z,23.77
2018-01-29T19:51:28.354Z,27.70
2018-01-29T19:53:56.016Z,26.13
2018-01-29T19:56:23.555Z,21.97
2018-01-29T19:58:51.090Z,25.23
2018-01-29T20:01:19.532Z,23.47
2018-01-29T20:03:47.840Z,23.07
2018-01-29T20:06:15.356Z,24.57
2018-01-29T20:08:42.886Z,22.93
2018-01-29T20:11:10.418Z,27.17
2018-01-29T20:13:38.064Z,23.93
2018-01-29T20:16:05.609Z,21.10
2018-01-29T20:18:33.146Z,21.70
2018-01-29T20:21:00.667Z,22.20
2018-01-29T20:23:28.184Z,23.67
2018-01-29T20:25:55.869Z,28.17
2018-01-29T20:28:23.511Z,23.20
2018-01-29T20:30:51.253Z,25.07
2018-01-29T20:33:18.794Z,23.63
2018-01-29T20:35:46.319Z,24.57
2018-01-29T20:38:13.856Z,29.43
2018-01-29T20:40:41.410Z,26.07
2018-01-29T20:43:09.072Z,28.63
2018-01-29T20:45:36.581Z,31.50
2018-01-29T20:48:04.109Z,31.60
2018-01-29T20:50:33.406Z,27.80
2018-01-29T20:53:00.950Z,32.13
2018-01-29T20:55:28.644Z,31.17
2018-01-29T20:57:56.215Z,28.47
2018-01-29T21:00:23.937Z,30.17
2018-01-29T21:02:51.469Z,27.73
2018-01-29T21:05:18.976Z,32.50
2018-01-29T21:07:46.541Z,31.03
2018-01-29T21:10:14.067Z,28.80
2018-01-29T21:12:41.708Z,29.57
2018-01-29T21:15:09.399Z,27.90
2018-01-29T21:17:36.970Z,34.10
2018-01-29T21:20:04.584Z,30.20
2018-01-29T21:22:32.121Z,31.33
2018-01-29T21:24:59.753Z,33.43
2018-01-29T21:27:27.273Z,33.27
2018-01-29T21:29:54.827Z,36.77
2018-01-29T21:32:22.337Z,43.40
2018-01-29T21:34:49.880Z,37.33
2018-01-29T21:37:17.525Z,34.07
2018-01-29T21:39:45.023Z,39.90
2018-01-29T21:42:12.538Z,38.83
2018-01-29T21:44:40.058Z,38.60
2018-01-29T21:47:07.574Z,38.20
2018-01-29T21:49:35.229Z,34.13
2018-01-29T21:52:02.788Z,37.30
2018-01-29T21:54:30.323Z,35.57
2018-01-29T21:56:57.867Z,36.57
2018-01-29T21:59:25.448Z,32.97
2018-01-29T22:01:53.158Z,34.40
2018-01-29T22:04:20.682Z,30.60
2018-01-29T22:06:51.020Z,35.27
2018-01-29T22:09:18.579Z,32.67
2018-01-29T22:11:46.090Z,41.77
2018-01-29T22:14:13.761Z,83.97
2018-01-29T22:16:41.280Z,145.77
2018-01-29T22:19:08.812Z,132.40
2018-01-29T22:21:36.356Z,97.70
2018-01-29T22:24:03.868Z,120.33
2018-01-29T22:26:31.504Z,120.70
2018-01-29T22:28:59.029Z,114.47
2018-01-29T22:31:26.702Z,109.00
2018-01-29T22:33:55.164Z,135.77
2018-01-29T22:36:22.720Z,115.77
2018-01-29T22:38:50.257Z,104.60
2018-01-29T22:41:17.791Z,102.73
2018-01-29T22:43:45.453Z,105.67
2018-01-29T22:46:12.991Z,91.10
2018-01-29T22:48:40.512Z,61.57
2018-01-29T22:51:08.025Z,65.47
2018-01-29T22:53:35.543Z,62.80
2018-01-29T22:56:03.203Z,49.97
2018-01-29T22:58:30.709Z,57.97
2018-01-29T23:00:58.397Z,49.07
2018-01-29T23:03:25.907Z,43.33
2018-01-29T23:05:53.428Z,38.13
2018-01-29T23:08:20.933Z,39.23
2018-01-29T23:10:48.512Z,30.30
2018-01-29T23:13:16.175Z,29.67
2018-01-29T23:15:43.688Z,30.67
2018-01-29T23:18:11.220Z,26.90
2018-01-29T23:20:38.766Z,20.67
2018-01-29T23:23:06.308Z,20.33
2018-01-29T23:25:33.983Z,24.53
2018-01-29T23:28:01.496Z,25.27
2018-01-29T23:30:29.242Z,30.33
2018-01-29T23:32:56.796Z,29.80
2018-01-29T23:35:24.328Z,29.93
2018-01-29T23:37:51.868Z,34.03
2018-01-29T23:40:19.386Z,27.47
2018-01-29T23:42:47.021Z,29.73
2018-01-29T23:45:14.567Z,36.30
2018-01-29T23:47:42.128Z,32.37
2018-01-29T23:50:09.663Z,29.80
2018-01-29T23:52:37.215Z,38.47
2018-01-29T23:55:04.891Z,30.70
2018-01-29T23:57:32.529Z,33.67
